Tetide — IVTN — position and weather

sailwx.info

Track history (hours):
 
Tides and Currents Weather Stations Pressure Air Temp Water Temp Dewpoint Dewpoint Depression Visibility Wind Speed Wind Dir Waves Ship Positions

Tetide

Last reported at 2017-Jun-27 03:32 UTC. Time now 2017-Jun-28 08:51 UTC.
Position N 41°15' E 013°37'.

Length 70 m; draft 3.6 m.

Type: Passenger vessel. MMSI: 247043100.

Date/timePositionNaut miles runAvg speedWind from/ knotsBaromVisibWave heightAir tempDewpointWater temp
2017-Jun-27 03:32N 41°15' E 013°37'0 0.0
2017-Jun-27 03:30N 41°15' E 013°37'0 0.0
2017-Jun-27 03:00N 41°15' E 013°37'0 0.0
2017-Jun-27 02:30N 41°15' E 013°37'0 0.0
2017-Jun-27 02:00N 41°15' E 013°37'0 0.0
2017-Jun-27 01:30N 41°15' E 013°37'0 0.0
2017-Jun-27 01:00N 41°15' E 013°37'0 0.0
2017-Jun-27 00:30N 41°15' E 013°37'0 0.0
2017-Jun-26 23:44N 41°15' E 013°37'0 0.0
2017-Jun-26 23:17N 41°15' E 013°37'0 0.0
2017-Jun-26 23:00N 41°15' E 013°37'0 0.0
2017-Jun-26 22:30N 41°15' E 013°37'0 0.0
2017-Jun-26 22:00N 41°15' E 013°37'0 0.0
2017-Jun-26 21:30N 41°15' E 013°37'0 0.0
2017-Jun-26 21:00N 41°15' E 013°37'0 0.0
2017-Jun-26 20:17N 41°15' E 013°37'0 0.0
2017-Jun-26 19:59N 41°15' E 013°37'0 0.0
2017-Jun-26 19:29N 41°15' E 013°37'0 0.0
2017-Jun-26 18:57N 41°15' E 013°37'0 0.0
2017-Jun-26 18:14N 41°15' E 013°37'6 5.3
2017-Jun-26 17:05N 41°09' E 013°35'114.5
2017-Jun-26 17:01N 41°08' E 013°35'714.6
2017-Jun-26 16:31N 41°01' E 013°32'714.7
2017-Jun-26 16:00N 40°54' E 013°29'4 2.0
2017-Jun-26 14:08N 40°51' E 013°26'914.3
2017-Jun-26 13:30N 40°59' E 013°31'714.3
2017-Jun-26 13:00N 41°06' E 013°34'714.5
2017-Jun-26 12:30N 41°13' E 013°37'2 4.3
2017-Jun-26 12:00N 41°15' E 013°37'4 8.3
2017-Jun-26 11:30N 41°12' E 013°34'4 0.5
2017-Jun-26 02:45N 41°15' E 013°37'0 0.0
2017-Jun-26 02:30N 41°15' E 013°37'0 0.0
2017-Jun-26 02:00N 41°15' E 013°37'0 0.0
2017-Jun-26 01:30N 41°15' E 013°37'0 0.0
2017-Jun-26 01:00N 41°15' E 013°37'0 0.0
2017-Jun-26 00:29N 41°15' E 013°37'0 0.0
2017-Jun-26 00:00N 41°15' E 013°37'0 0.0
2017-Jun-25 23:27N 41°15' E 013°37'0 0.0
2017-Jun-25 22:53N 41°15' E 013°37'0 0.0
2017-Jun-25 22:30N 41°15' E 013°37'0 0.0
2017-Jun-25 22:00N 41°15' E 013°37'0 0.0
2017-Jun-25 21:30N 41°15' E 013°37'0 0.0
2017-Jun-25 20:48N 41°15' E 013°37'0 0.0
2017-Jun-25 20:29N 41°15' E 013°37'0 0.0
2017-Jun-25 18:35N 41°15' E 013°37'0 0.0
2017-Jun-25 18:30N 41°15' E 013°37'0 0.0
2017-Jun-25 18:00N 41°15' E 013°37'1 1.1
2017-Jun-25 17:30N 41°15' E 013°37'914.5
2017-Jun-25 16:52N 41°06' E 013°34'514.6
2017-Jun-25 16:30N 41°01' E 013°32'6 2.0
2017-Jun-25 13:45N 40°56' E 013°29'414.4
2017-Jun-25 13:30N 40°59' E 013°31'914.4
2017-Jun-25 12:53N 41°08' E 013°34'614.6
2017-Jun-25 12:28N 41°14' E 013°37'2 3.7
2017-Jun-25 12:00N 41°15' E 013°37'0 0.0
2017-Jun-25 04:07N 41°15' E 013°37'0 0.0
2017-Jun-25 03:34N 41°15' E 013°37'0 0.0
2017-Jun-25 02:29N 41°15' E 013°37'0 0.0
2017-Jun-25 01:58N 41°15' E 013°37'0 0.0
2017-Jun-25 01:31N 41°15' E 013°37'0 0.0
2017-Jun-25 00:55N 41°15' E 013°37'0 0.0
2017-Jun-25 00:30N 41°15' E 013°37'0 0.0
2017-Jun-24 18:13N 41°15' E 013°37'2 2.7
2017-Jun-24 17:23N 41°13' E 013°37'19 5.5
2017-Jun-24 13:57N 40°55' E 013°29'714.9
2017-Jun-24 13:31N 41°01' E 013°32'714.7
2017-Jun-24 13:00N 41°08' E 013°35'714.1
2017-Jun-24 12:30N 41°15' E 013°37'0 0.6
2017-Jun-24 12:00N 41°15' E 013°37'914.4
2017-Jun-24 11:21N 41°06' E 013°34'514.8
2017-Jun-24 11:00N 41°01' E 013°32'714.6
2017-Jun-24 10:30N 40°54' E 013°29'6 3.2
2017-Jun-24 08:45N 40°49' E 013°26'514.7
2017-Jun-24 08:24N 40°54' E 013°28'614.7
2017-Jun-24 08:00N 40°59' E 013°31'714.5
2017-Jun-24 07:30N 41°06' E 013°34'814.6
2017-Jun-24 06:57N 41°14' E 013°37'1 2.6
2017-Jun-24 06:30N 41°15' E 013°37'0 0.0
2017-Jun-24 06:00N 41°15' E 013°37'0 0.0
2017-Jun-24 05:12N 41°15' E 013°37'0 0.0
2017-Jun-24 03:20N 41°15' E 013°37'0 0.0
2017-Jun-24 03:00N 41°15' E 013°37'0 0.0
2017-Jun-24 02:15N 41°15' E 013°37'0 0.0
2017-Jun-24 01:55N 41°15' E 013°37'0 0.0
2017-Jun-24 01:30N 41°15' E 013°37'0 0.0
2017-Jun-24 01:00N 41°15' E 013°37'0 0.0
2017-Jun-24 00:30N 41°15' E 013°37'0 0.0
2017-Jun-24 00:00N 41°15' E 013°37'0 0.0
2017-Jun-23 23:30N 41°15' E 013°37'0 0.0
2017-Jun-23 23:00N 41°15' E 013°37'0 0.0
2017-Jun-23 22:30N 41°15' E 013°37'0 0.0
2017-Jun-23 21:57N 41°15' E 013°37'0 0.0
2017-Jun-23 21:30N 41°15' E 013°37'0 0.0
2017-Jun-23 20:59N 41°15' E 013°37'0 0.0
2017-Jun-23 20:30N 41°15' E 013°37'0 0.0
2017-Jun-23 20:00N 41°15' E 013°37'0 0.0
2017-Jun-23 19:31N 41°15' E 013°37'0 0.0
2017-Jun-23 19:00N 41°15' E 013°37'0 0.2
2017-Jun-23 18:30N 41°15' E 013°37'612.2
2017-Jun-23 18:00N 41°10' E 013°32'714.6
2017-Jun-23 17:30N 41°06' E 013°24'814.9
2017-Jun-23 16:58N 41°02' E 013°15'13 7.0
2017-Jun-23 15:07N 40°55' E 013°01'514.6
2017-Jun-23 14:48N 40°58' E 013°06'1214.3
2017-Jun-23 13:58N 41°04' E 013°19'1314.2
2017-Jun-23 13:04N 41°11' E 013°33'114.4
2017-Jun-23 13:00N 41°12' E 013°34'4 8.5
2017-Jun-23 12:31N 41°15' E 013°37'0 0.6
2017-Jun-23 12:01N 41°15' E 013°37'713.1
2017-Jun-23 11:28N 41°10' E 013°31'1114.9
2017-Jun-23 10:44N 41°04' E 013°19'315.0
2017-Jun-23 10:30N 41°02' E 013°15'1014.7
2017-Jun-23 09:48N 40°56' E 013°03'2 1.7
2017-Jun-23 08:31N 40°55' E 013°01'014.0
2017-Jun-23 08:30N 40°55' E 013°01'3214.0
2017-Jun-23 06:15N 41°13' E 013°36'2 9.7
2017-Jun-23 06:00N 41°15' E 013°37'0 0.0
2017-Jun-23 05:30N 41°15' E 013°37'0 0.0
2017-Jun-23 03:55N 41°15' E 013°37'0 0.0
2017-Jun-23 03:30N 41°15' E 013°37'0 0.0
2017-Jun-23 03:00N 41°15' E 013°37'0 0.0
2017-Jun-23 01:52N 41°15' E 013°37'0 0.0
2017-Jun-23 01:30N 41°15' E 013°37'0 0.0
2017-Jun-23 01:00N 41°15' E 013°37'0 0.0
2017-Jun-23 00:30N 41°15' E 013°37'0 0.0
2017-Jun-23 00:01N 41°15' E 013°37'0 0.0
2017-Jun-22 23:30N 41°15' E 013°37'0 0.0
2017-Jun-22 23:01N 41°15' E 013°37'0 0.0
2017-Jun-22 22:30N 41°15' E 013°37'0 0.0
2017-Jun-22 21:22N 41°15' E 013°37'0 0.0
2017-Jun-22 18:21N 41°15' E 013°37'0 0.0
2017-Jun-22 17:56N 41°15' E 013°37'2 4.3
2017-Jun-22 17:30N 41°14' E 013°37'714.5
2017-Jun-22 17:01N 41°07' E 013°34'714.2
2017-Jun-22 16:30N 40°60' E 013°31'714.3
2017-Jun-22 16:00N 40°53' E 013°28'1 0.7
2017-Jun-22 14:01N 40°54' E 013°29'714.9
2017-Jun-22 13:30N 41°01' E 013°32'1114.8
2017-Jun-22 12:45N 41°12' E 013°36'3 4.3
2017-Jun-22 12:00N 41°15' E 013°37'12 2.3
2017-Jun-22 06:55N 41°07' E 013°25'614.5
2017-Jun-22 06:30N 41°11' E 013°32'611.6
2017-Jun-22 06:00N 41°15' E 013°37'0 0.0
2017-Jun-22 05:30N 41°15' E 013°37'0 0.0
2017-Jun-22 05:01N 41°15' E 013°37'0 0.0
2017-Jun-22 03:38N 41°15' E 013°37'0 0.0
2017-Jun-22 03:30N 41°15' E 013°37'0 0.0
2017-Jun-21 22:47N 41°15' E 013°37'0 0.0
2017-Jun-21 20:54N 41°15' E 013°37'0 0.0
2017-Jun-21 20:30N 41°15' E 013°37'29 5.1
2017-Jun-21 14:48N 40°57' E 013°06'514.5
2017-Jun-21 14:28N 40°60' E 013°11'1414.3
2017-Jun-21 13:28N 41°08' E 013°27'714.2
2017-Jun-21 12:57N 41°12' E 013°35'3 7.8
2017-Jun-21 12:31N 41°15' E 013°37'1 2.3
2017-Jun-21 12:00N 41°14' E 013°37'32 8.9
2017-Jun-21 08:24N 40°56' E 013°02'33 6.6
2017-Jun-21 03:27N 41°15' E 013°37'0 0.0
2017-Jun-21 03:00N 41°15' E 013°37'0 0.0
2017-Jun-21 02:30N 41°15' E 013°37'0 0.0
2017-Jun-21 01:56N 41°15' E 013°37'0 0.0
2017-Jun-21 01:30N 41°15' E 013°37'0 0.0
2017-Jun-20 22:18N 41°15' E 013°37'0 0.0
2017-Jun-20 20:59N 41°15' E 013°37'0 0.0
2017-Jun-20 20:15N 41°15' E 013°37'0 0.0
2017-Jun-20 20:00N 41°15' E 013°37'0 0.0
2017-Jun-20 19:30N 41°15' E 013°37'0 0.0
2017-Jun-20 19:00N 41°15' E 013°37'0 0.0
2017-Jun-20 18:30N 41°15' E 013°37'510.0
2017-Jun-20 18:00N 41°11' E 013°34'2 0.2
2017-Jun-20 06:35N 41°10' E 013°31'114.6
2017-Jun-20 06:30N 41°11' E 013°32'6 0.8
2017-Jun-19 23:12N 41°15' E 013°37'0 0.0
2017-Jun-19 23:00N 41°15' E 013°37'0 0.0
2017-Jun-19 19:22N 41°15' E 013°37'0 0.0
2017-Jun-19 19:00N 41°15' E 013°37'18 0.4
2017-Jun-17 16:15N 40°58' E 013°31'414.6
2017-Jun-17 16:00N 40°54' E 013°29'6 2.3
2017-Jun-17 13:30N 40°60' E 013°31'1613.1
2017-Jun-17 12:15N 41°15' E 013°37'0 0.2
2017-Jun-17 11:55N 41°15' E 013°37'0 0.0
2017-Jun-17 05:16N 41°15' E 013°37'0 0.0
2017-Jun-17 05:00N 41°15' E 013°37'0 0.0
2017-Jun-17 04:02N 41°15' E 013°37'0 0.0
2017-Jun-17 03:55N 41°15' E 013°37'  
Track history (hours):
 
Tides and Currents Weather Stations Pressure Air Temp Water Temp Dewpoint Dewpoint Depression Visibility Wind Speed Wind Dir Waves Ship Positions

Tetide

Last reported at 2017-Jun-27 03:32 UTC. Time now 2017-Jun-28 08:51 UTC.
Position N 41°15' E 013°37'.

Length 70 m; draft 3.6 m.

Type: Passenger vessel. MMSI: 247043100.

Date/timePositionNaut miles runAvg speedWind from/ knotsBaromVisibWave heightAir tempDewpointWater temp
2017-Jun-27 03:32N 41°15' E 013°37'0 0.0
2017-Jun-27 03:30N 41°15' E 013°37'0 0.0
2017-Jun-27 03:00N 41°15' E 013°37'0 0.0
2017-Jun-27 02:30N 41°15' E 013°37'0 0.0
2017-Jun-27 02:00N 41°15' E 013°37'0 0.0
2017-Jun-27 01:30N 41°15' E 013°37'0 0.0
2017-Jun-27 01:00N 41°15' E 013°37'0 0.0
2017-Jun-27 00:30N 41°15' E 013°37'0 0.0
2017-Jun-26 23:44N 41°15' E 013°37'0 0.0
2017-Jun-26 23:17N 41°15' E 013°37'0 0.0
2017-Jun-26 23:00N 41°15' E 013°37'0 0.0
2017-Jun-26 22:30N 41°15' E 013°37'0 0.0
2017-Jun-26 22:00N 41°15' E 013°37'0 0.0
2017-Jun-26 21:30N 41°15' E 013°37'0 0.0
2017-Jun-26 21:00N 41°15' E 013°37'0 0.0
2017-Jun-26 20:17N 41°15' E 013°37'0 0.0
2017-Jun-26 19:59N 41°15' E 013°37'0 0.0
2017-Jun-26 19:29N 41°15' E 013°37'0 0.0
2017-Jun-26 18:57N 41°15' E 013°37'0 0.0
2017-Jun-26 18:14N 41°15' E 013°37'6 5.3
2017-Jun-26 17:05N 41°09' E 013°35'114.5
2017-Jun-26 17:01N 41°08' E 013°35'714.6
2017-Jun-26 16:31N 41°01' E 013°32'714.7
2017-Jun-26 16:00N 40°54' E 013°29'4 2.0
2017-Jun-26 14:08N 40°51' E 013°26'914.3
2017-Jun-26 13:30N 40°59' E 013°31'714.3
2017-Jun-26 13:00N 41°06' E 013°34'714.5
2017-Jun-26 12:30N 41°13' E 013°37'2 4.3
2017-Jun-26 12:00N 41°15' E 013°37'4 8.3
2017-Jun-26 11:30N 41°12' E 013°34'4 0.5
2017-Jun-26 02:45N 41°15' E 013°37'0 0.0
2017-Jun-26 02:30N 41°15' E 013°37'0 0.0
2017-Jun-26 02:00N 41°15' E 013°37'0 0.0
2017-Jun-26 01:30N 41°15' E 013°37'0 0.0
2017-Jun-26 01:00N 41°15' E 013°37'0 0.0
2017-Jun-26 00:29N 41°15' E 013°37'0 0.0
2017-Jun-26 00:00N 41°15' E 013°37'0 0.0
2017-Jun-25 23:27N 41°15' E 013°37'0 0.0
2017-Jun-25 22:53N 41°15' E 013°37'0 0.0
2017-Jun-25 22:30N 41°15' E 013°37'0 0.0
2017-Jun-25 22:00N 41°15' E 013°37'0 0.0
2017-Jun-25 21:30N 41°15' E 013°37'0 0.0
2017-Jun-25 20:48N 41°15' E 013°37'0 0.0
2017-Jun-25 20:29N 41°15' E 013°37'0 0.0
2017-Jun-25 18:35N 41°15' E 013°37'0 0.0
2017-Jun-25 18:30N 41°15' E 013°37'0 0.0
2017-Jun-25 18:00N 41°15' E 013°37'1 1.1
2017-Jun-25 17:30N 41°15' E 013°37'914.5
2017-Jun-25 16:52N 41°06' E 013°34'514.6
2017-Jun-25 16:30N 41°01' E 013°32'6 2.0
2017-Jun-25 13:45N 40°56' E 013°29'414.4
2017-Jun-25 13:30N 40°59' E 013°31'914.4
2017-Jun-25 12:53N 41°08' E 013°34'614.6
2017-Jun-25 12:28N 41°14' E 013°37'2 3.7
2017-Jun-25 12:00N 41°15' E 013°37'0 0.0
2017-Jun-25 04:07N 41°15' E 013°37'0 0.0
2017-Jun-25 03:34N 41°15' E 013°37'0 0.0
2017-Jun-25 02:29N 41°15' E 013°37'0 0.0
2017-Jun-25 01:58N 41°15' E 013°37'0 0.0
2017-Jun-25 01:31N 41°15' E 013°37'0 0.0
2017-Jun-25 00:55N 41°15' E 013°37'0 0.0
2017-Jun-25 00:30N 41°15' E 013°37'0 0.0
2017-Jun-24 18:13N 41°15' E 013°37'2 2.7
2017-Jun-24 17:23N 41°13' E 013°37'19 5.5
2017-Jun-24 13:57N 40°55' E 013°29'714.9
2017-Jun-24 13:31N 41°01' E 013°32'714.7
2017-Jun-24 13:00N 41°08' E 013°35'714.1
2017-Jun-24 12:30N 41°15' E 013°37'0 0.6
2017-Jun-24 12:00N 41°15' E 013°37'914.4
2017-Jun-24 11:21N 41°06' E 013°34'514.8
2017-Jun-24 11:00N 41°01' E 013°32'714.6
2017-Jun-24 10:30N 40°54' E 013°29'6 3.2
2017-Jun-24 08:45N 40°49' E 013°26'514.7
2017-Jun-24 08:24N 40°54' E 013°28'614.7
2017-Jun-24 08:00N 40°59' E 013°31'714.5
2017-Jun-24 07:30N 41°06' E 013°34'814.6
2017-Jun-24 06:57N 41°14' E 013°37'1 2.6
2017-Jun-24 06:30N 41°15' E 013°37'0 0.0
2017-Jun-24 06:00N 41°15' E 013°37'0 0.0
2017-Jun-24 05:12N 41°15' E 013°37'0 0.0
2017-Jun-24 03:20N 41°15' E 013°37'0 0.0
2017-Jun-24 03:00N 41°15' E 013°37'0 0.0
2017-Jun-24 02:15N 41°15' E 013°37'0 0.0
2017-Jun-24 01:55N 41°15' E 013°37'0 0.0
2017-Jun-24 01:30N 41°15' E 013°37'0 0.0
2017-Jun-24 01:00N 41°15' E 013°37'0 0.0
2017-Jun-24 00:30N 41°15' E 013°37'0 0.0
2017-Jun-24 00:00N 41°15' E 013°37'0 0.0
2017-Jun-23 23:30N 41°15' E 013°37'0 0.0
2017-Jun-23 23:00N 41°15' E 013°37'0 0.0
2017-Jun-23 22:30N 41°15' E 013°37'0 0.0
2017-Jun-23 21:57N 41°15' E 013°37'0 0.0
2017-Jun-23 21:30N 41°15' E 013°37'0 0.0
2017-Jun-23 20:59N 41°15' E 013°37'0 0.0
2017-Jun-23 20:30N 41°15' E 013°37'0 0.0
2017-Jun-23 20:00N 41°15' E 013°37'0 0.0
2017-Jun-23 19:31N 41°15' E 013°37'0 0.0
2017-Jun-23 19:00N 41°15' E 013°37'0 0.2
2017-Jun-23 18:30N 41°15' E 013°37'612.2
2017-Jun-23 18:00N 41°10' E 013°32'714.6
2017-Jun-23 17:30N 41°06' E 013°24'814.9
2017-Jun-23 16:58N 41°02' E 013°15'13 7.0
2017-Jun-23 15:07N 40°55' E 013°01'514.6
2017-Jun-23 14:48N 40°58' E 013°06'1214.3
2017-Jun-23 13:58N 41°04' E 013°19'1314.2
2017-Jun-23 13:04N 41°11' E 013°33'114.4
2017-Jun-23 13:00N 41°12' E 013°34'4 8.5
2017-Jun-23 12:31N 41°15' E 013°37'0 0.6
2017-Jun-23 12:01N 41°15' E 013°37'713.1
2017-Jun-23 11:28N 41°10' E 013°31'1114.9
2017-Jun-23 10:44N 41°04' E 013°19'315.0
2017-Jun-23 10:30N 41°02' E 013°15'1014.7
2017-Jun-23 09:48N 40°56' E 013°03'2 1.7
2017-Jun-23 08:31N 40°55' E 013°01'014.0
2017-Jun-23 08:30N 40°55' E 013°01'3214.0
2017-Jun-23 06:15N 41°13' E 013°36'2 9.7
2017-Jun-23 06:00N 41°15' E 013°37'0 0.0
2017-Jun-23 05:30N 41°15' E 013°37'0 0.0
2017-Jun-23 03:55N 41°15' E 013°37'0 0.0
2017-Jun-23 03:30N 41°15' E 013°37'0 0.0
2017-Jun-23 03:00N 41°15' E 013°37'0 0.0
2017-Jun-23 01:52N 41°15' E 013°37'0 0.0
2017-Jun-23 01:30N 41°15' E 013°37'0 0.0
2017-Jun-23 01:00N 41°15' E 013°37'0 0.0
2017-Jun-23 00:30N 41°15' E 013°37'0 0.0
2017-Jun-23 00:01N 41°15' E 013°37'0 0.0
2017-Jun-22 23:30N 41°15' E 013°37'0 0.0
2017-Jun-22 23:01N 41°15' E 013°37'0 0.0
2017-Jun-22 22:30N 41°15' E 013°37'0 0.0
2017-Jun-22 21:22N 41°15' E 013°37'0 0.0
2017-Jun-22 18:21N 41°15' E 013°37'0 0.0
2017-Jun-22 17:56N 41°15' E 013°37'2 4.3
2017-Jun-22 17:30N 41°14' E 013°37'714.5
2017-Jun-22 17:01N 41°07' E 013°34'714.2
2017-Jun-22 16:30N 40°60' E 013°31'714.3
2017-Jun-22 16:00N 40°53' E 013°28'1 0.7
2017-Jun-22 14:01N 40°54' E 013°29'714.9
2017-Jun-22 13:30N 41°01' E 013°32'1114.8
2017-Jun-22 12:45N 41°12' E 013°36'3 4.3
2017-Jun-22 12:00N 41°15' E 013°37'12 2.3
2017-Jun-22 06:55N 41°07' E 013°25'614.5
2017-Jun-22 06:30N 41°11' E 013°32'611.6
2017-Jun-22 06:00N 41°15' E 013°37'0 0.0
2017-Jun-22 05:30N 41°15' E 013°37'0 0.0
2017-Jun-22 05:01N 41°15' E 013°37'0 0.0
2017-Jun-22 03:38N 41°15' E 013°37'0 0.0
2017-Jun-22 03:30N 41°15' E 013°37'0 0.0
2017-Jun-21 22:47N 41°15' E 013°37'0 0.0
2017-Jun-21 20:54N 41°15' E 013°37'0 0.0
2017-Jun-21 20:30N 41°15' E 013°37'29 5.1
2017-Jun-21 14:48N 40°57' E 013°06'514.5
2017-Jun-21 14:28N 40°60' E 013°11'1414.3
2017-Jun-21 13:28N 41°08' E 013°27'714.2
2017-Jun-21 12:57N 41°12' E 013°35'3 7.8
2017-Jun-21 12:31N 41°15' E 013°37'1 2.3
2017-Jun-21 12:00N 41°14' E 013°37'32 8.9
2017-Jun-21 08:24N 40°56' E 013°02'33 6.6
2017-Jun-21 03:27N 41°15' E 013°37'0 0.0
2017-Jun-21 03:00N 41°15' E 013°37'0 0.0
2017-Jun-21 02:30N 41°15' E 013°37'0 0.0
2017-Jun-21 01:56N 41°15' E 013°37'0 0.0
2017-Jun-21 01:30N 41°15' E 013°37'0 0.0
2017-Jun-20 22:18N 41°15' E 013°37'0 0.0
2017-Jun-20 20:59N 41°15' E 013°37'0 0.0
2017-Jun-20 20:15N 41°15' E 013°37'0 0.0
2017-Jun-20 20:00N 41°15' E 013°37'0 0.0
2017-Jun-20 19:30N 41°15' E 013°37'0 0.0
2017-Jun-20 19:00N 41°15' E 013°37'0 0.0
2017-Jun-20 18:30N 41°15' E 013°37'510.0
2017-Jun-20 18:00N 41°11' E 013°34'2 0.2
2017-Jun-20 06:35N 41°10' E 013°31'114.6
2017-Jun-20 06:30N 41°11' E 013°32'6 0.8
2017-Jun-19 23:12N 41°15' E 013°37'0 0.0
2017-Jun-19 23:00N 41°15' E 013°37'0 0.0
2017-Jun-19 19:22N 41°15' E 013°37'0 0.0
2017-Jun-19 19:00N 41°15' E 013°37'18 0.4
2017-Jun-17 16:15N 40°58' E 013°31'414.6
2017-Jun-17 16:00N 40°54' E 013°29'6 2.3
2017-Jun-17 13:30N 40°60' E 013°31'1613.1
2017-Jun-17 12:15N 41°15' E 013°37'0 0.2
2017-Jun-17 11:55N 41°15' E 013°37'0 0.0
2017-Jun-17 05:16N 41°15' E 013°37'0 0.0
2017-Jun-17 05:00N 41°15' E 013°37'0 0.0
2017-Jun-17 04:02N 41°15' E 013°37'0 0.0
2017-Jun-17 03:55N 41°15' E 013°37'  

Dump ship's entire track history